sensor_id;sensor_type;location;lat;lon;timestamp;P1;durP1;ratioP1;P2;durP2;ratioP2
4122;SDS011;2075;51.062;6.920;2023-02-23T00:00:25;52.07;;;32.93;;
4122;SDS011;2075;51.062;6.920;2023-02-23T00:03:12;56.00;;;34.87;;
4122;SDS011;2075;51.062;6.920;2023-02-23T00:05:57;53.90;;;34.40;;
4122;SDS011;2075;51.062;6.920;2023-02-23T00:08:48;57.27;;;34.00;;
4122;SDS011;2075;51.062;6.920;2023-02-23T00:11:34;56.33;;;33.87;;
4122;SDS011;2075;51.062;6.920;2023-02-23T00:14:20;55.70;;;34.53;;
4122;SDS011;2075;51.062;6.920;2023-02-23T00:17:10;62.17;;;33.97;;
4122;SDS011;2075;51.062;6.920;2023-02-23T00:19:57;61.77;;;34.73;;
4122;SDS011;2075;51.062;6.920;2023-02-23T00:22:42;60.20;;;35.17;;
4122;SDS011;2075;51.062;6.920;2023-02-23T00:25:29;58.70;;;33.53;;
4122;SDS011;2075;51.062;6.920;2023-02-23T00:28:14;60.63;;;36.77;;
4122;SDS011;2075;51.062;6.920;2023-02-23T00:31:00;55.00;;;33.40;;
4122;SDS011;2075;51.062;6.920;2023-02-23T00:33:46;57.33;;;35.30;;
4122;SDS011;2075;51.062;6.920;2023-02-23T00:36:34;66.33;;;35.70;;
4122;SDS011;2075;51.062;6.920;2023-02-23T00:39:20;60.40;;;36.60;;
4122;SDS011;2075;51.062;6.920;2023-02-23T00:42:12;62.27;;;37.23;;
4122;SDS011;2075;51.062;6.920;2023-02-23T00:44:58;57.73;;;35.43;;
4122;SDS011;2075;51.062;6.920;2023-02-23T00:47:50;61.10;;;34.87;;
4122;SDS011;2075;51.062;6.920;2023-02-23T00:50:35;63.40;;;36.53;;
4122;SDS011;2075;51.062;6.920;2023-02-23T00:53:24;56.87;;;35.93;;
4122;SDS011;2075;51.062;6.920;2023-02-23T00:56:10;59.60;;;35.77;;
4122;SDS011;2075;51.062;6.920;2023-02-23T00:58:58;65.07;;;36.03;;
4122;SDS011;2075;51.062;6.920;2023-02-23T01:01:44;61.90;;;36.50;;
4122;SDS011;2075;51.062;6.920;2023-02-23T01:04:29;62.87;;;36.20;;
4122;SDS011;2075;51.062;6.920;2023-02-23T01:07:14;62.10;;;35.90;;
4122;SDS011;2075;51.062;6.920;2023-02-23T01:10:00;64.27;;;36.17;;
4122;SDS011;2075;51.062;6.920;2023-02-23T01:12:46;58.83;;;35.30;;
4122;SDS011;2075;51.062;6.920;2023-02-23T01:15:34;62.57;;;36.20;;
4122;SDS011;2075;51.062;6.920;2023-02-23T01:18:24;65.67;;;36.40;;
4122;SDS011;2075;51.062;6.920;2023-02-23T01:21:13;64.90;;;36.83;;
4122;SDS011;2075;51.062;6.920;2023-02-23T01:24:01;59.20;;;36.10;;
4122;SDS011;2075;51.062;6.920;2023-02-23T01:26:47;57.70;;;36.20;;
4122;SDS011;2075;51.062;6.920;2023-02-23T01:29:32;62.30;;;37.50;;
4122;SDS011;2075;51.062;6.920;2023-02-23T01:32:19;71.63;;;38.67;;
4122;SDS011;2075;51.062;6.920;2023-02-23T01:35:06;66.50;;;38.13;;
4122;SDS011;2075;51.062;6.920;2023-02-23T01:37:52;62.43;;;35.93;;
4122;SDS011;2075;51.062;6.920;2023-02-23T01:40:41;61.97;;;37.50;;
4122;SDS011;2075;51.062;6.920;2023-02-23T01:43:26;66.57;;;37.33;;
4122;SDS011;2075;51.062;6.920;2023-02-23T01:46:11;71.43;;;37.87;;
4122;SDS011;2075;51.062;6.920;2023-02-23T01:48:58;71.07;;;37.90;;
4122;SDS011;2075;51.062;6.920;2023-02-23T01:51:44;60.57;;;38.60;;
4122;SDS011;2075;51.062;6.920;2023-02-23T01:54:32;62.17;;;37.87;;
4122;SDS011;2075;51.062;6.920;2023-02-23T01:57:20;68.57;;;38.10;;
4122;SDS011;2075;51.062;6.920;2023-02-23T02:00:10;88.07;;;43.20;;
4122;SDS011;2075;51.062;6.920;2023-02-23T02:02:57;91.00;;;42.40;;
4122;SDS011;2075;51.062;6.920;2023-02-23T02:05:47;67.70;;;37.70;;
4122;SDS011;2075;51.062;6.920;2023-02-23T02:08:37;68.83;;;38.23;;
4122;SDS011;2075;51.062;6.920;2023-02-23T02:11:28;66.40;;;37.97;;
4122;SDS011;2075;51.062;6.920;2023-02-23T02:14:19;63.80;;;37.63;;
4122;SDS011;2075;51.062;6.920;2023-02-23T02:17:11;67.27;;;38.23;;
4122;SDS011;2075;51.062;6.920;2023-02-23T02:23:41;60.83;;;36.20;;
4122;SDS011;2075;51.062;6.920;2023-02-23T02:26:53;60.47;;;35.23;;
4122;SDS011;2075;51.062;6.920;2023-02-23T02:40:08;65.30;;;35.00;;
4122;SDS011;2075;51.062;6.920;2023-02-23T02:43:02;67.17;;;36.00;;
4122;SDS011;2075;51.062;6.920;2023-02-23T02:45:54;61.10;;;36.83;;
4122;SDS011;2075;51.062;6.920;2023-02-23T02:48:45;65.67;;;38.13;;
4122;SDS011;2075;51.062;6.920;2023-02-23T02:51:41;62.93;;;36.73;;
4122;SDS011;2075;51.062;6.920;2023-02-23T02:54:34;69.67;;;39.80;;
4122;SDS011;2075;51.062;6.920;2023-02-23T02:57:24;66.00;;;37.93;;
4122;SDS011;2075;51.062;6.920;2023-02-23T03:00:13;72.20;;;40.37;;
4122;SDS011;2075;51.062;6.920;2023-02-23T03:03:26;74.63;;;41.37;;
4122;SDS011;2075;51.062;6.920;2023-02-23T03:06:32;64.27;;;36.47;;
4122;SDS011;2075;51.062;6.920;2023-02-23T03:09:42;70.30;;;39.70;;
4122;SDS011;2075;51.062;6.920;2023-02-23T03:12:56;69.50;;;39.50;;
4122;SDS011;2075;51.062;6.920;2023-02-23T03:16:10;61.90;;;37.63;;
4122;SDS011;2075;51.062;6.920;2023-02-23T03:19:23;70.73;;;39.67;;
4122;SDS011;2075;51.062;6.920;2023-02-23T03:22:28;73.10;;;40.03;;
4122;SDS011;2075;51.062;6.920;2023-02-23T03:25:43;74.43;;;39.37;;
4122;SDS011;2075;51.062;6.920;2023-02-23T03:28:53;70.63;;;40.67;;
4122;SDS011;2075;51.062;6.920;2023-02-23T03:32:02;77.43;;;39.40;;
4122;SDS011;2075;51.062;6.920;2023-02-23T03:35:13;68.00;;;37.80;;
4122;SDS011;2075;51.062;6.920;2023-02-23T03:38:24;65.73;;;37.57;;
4122;SDS011;2075;51.062;6.920;2023-02-23T03:41:32;76.63;;;40.00;;
4122;SDS011;2075;51.062;6.920;2023-02-23T03:44:38;65.37;;;38.43;;
4122;SDS011;2075;51.062;6.920;2023-02-23T03:47:44;71.57;;;40.27;;
4122;SDS011;2075;51.062;6.920;2023-02-23T03:50:50;71.97;;;41.63;;
4122;SDS011;2075;51.062;6.920;2023-02-23T03:53:56;72.57;;;40.70;;
4122;SDS011;2075;51.062;6.920;2023-02-23T03:57:06;71.67;;;40.37;;
4122;SDS011;2075;51.062;6.920;2023-02-23T04:00:13;76.70;;;40.87;;
4122;SDS011;2075;51.062;6.920;2023-02-23T04:03:19;73.60;;;40.37;;
4122;SDS011;2075;51.062;6.920;2023-02-23T04:06:24;69.00;;;40.80;;
4122;SDS011;2075;51.062;6.920;2023-02-23T04:09:30;74.50;;;42.00;;
4122;SDS011;2075;51.062;6.920;2023-02-23T04:12:36;72.67;;;41.43;;
4122;SDS011;2075;51.062;6.920;2023-02-23T04:15:49;69.43;;;40.10;;
4122;SDS011;2075;51.062;6.920;2023-02-23T04:18:37;67.40;;;38.97;;
4122;SDS011;2075;51.062;6.920;2023-02-23T04:21:23;70.93;;;40.83;;
4122;SDS011;2075;51.062;6.920;2023-02-23T04:24:09;74.67;;;40.07;;
4122;SDS011;2075;51.062;6.920;2023-02-23T04:26:55;64.20;;;38.60;;
4122;SDS011;2075;51.062;6.920;2023-02-23T04:29:41;72.30;;;40.90;;
4122;SDS011;2075;51.062;6.920;2023-02-23T04:32:27;88.67;;;42.87;;
4122;SDS011;2075;51.062;6.920;2023-02-23T04:35:13;81.87;;;42.67;;
4122;SDS011;2075;51.062;6.920;2023-02-23T04:37:58;79.37;;;40.80;;
4122;SDS011;2075;51.062;6.920;2023-02-23T04:40:44;97.47;;;41.90;;
4122;SDS011;2075;51.062;6.920;2023-02-23T04:43:29;92.27;;;43.17;;
4122;SDS011;2075;51.062;6.920;2023-02-23T04:46:16;91.60;;;42.50;;
4122;SDS011;2075;51.062;6.920;2023-02-23T04:49:02;84.67;;;43.37;;
4122;SDS011;2075;51.062;6.920;2023-02-23T04:51:47;105.27;;;45.60;;
4122;SDS011;2075;51.062;6.920;2023-02-23T04:54:32;99.23;;;45.80;;
4122;SDS011;2075;51.062;6.920;2023-02-23T04:57:21;94.90;;;44.27;;
4122;SDS011;2075;51.062;6.920;2023-02-23T05:00:06;98.03;;;46.50;;
4122;SDS011;2075;51.062;6.920;2023-02-23T05:02:54;96.23;;;44.90;;
4122;SDS011;2075;51.062;6.920;2023-02-23T05:05:40;95.53;;;44.60;;
4122;SDS011;2075;51.062;6.920;2023-02-23T05:08:25;98.20;;;44.53;;
4122;SDS011;2075;51.062;6.920;2023-02-23T05:11:11;93.47;;;43.97;;
4122;SDS011;2075;51.062;6.920;2023-02-23T05:13:57;98.70;;;44.60;;
4122;SDS011;2075;51.062;6.920;2023-02-23T05:16:42;92.83;;;43.43;;
4122;SDS011;2075;51.062;6.920;2023-02-23T05:19:29;102.07;;;46.23;;
4122;SDS011;2075;51.062;6.920;2023-02-23T05:22:14;100.23;;;46.30;;
4122;SDS011;2075;51.062;6.920;2023-02-23T05:24:59;103.40;;;45.90;;
4122;SDS011;2075;51.062;6.920;2023-02-23T05:27:45;102.17;;;46.20;;
4122;SDS011;2075;51.062;6.920;2023-02-23T05:30:31;89.40;;;42.77;;
4122;SDS011;2075;51.062;6.920;2023-02-23T05:33:17;98.97;;;44.97;;
4122;SDS011;2075;51.062;6.920;2023-02-23T05:36:04;96.00;;;46.60;;
4122;SDS011;2075;51.062;6.920;2023-02-23T05:38:50;95.10;;;45.10;;
4122;SDS011;2075;51.062;6.920;2023-02-23T05:41:36;93.23;;;45.33;;
4122;SDS011;2075;51.062;6.920;2023-02-23T05:44:22;97.57;;;45.90;;
4122;SDS011;2075;51.062;6.920;2023-02-23T05:47:07;95.93;;;45.90;;
4122;SDS011;2075;51.062;6.920;2023-02-23T05:49:53;93.87;;;44.60;;
4122;SDS011;2075;51.062;6.920;2023-02-23T05:52:40;97.73;;;44.27;;
4122;SDS011;2075;51.062;6.920;2023-02-23T05:55:25;84.10;;;42.80;;
4122;SDS011;2075;51.062;6.920;2023-02-23T05:58:11;91.00;;;41.37;;
4122;SDS011;2075;51.062;6.920;2023-02-23T06:00:56;84.37;;;41.60;;
4122;SDS011;2075;51.062;6.920;2023-02-23T06:03:42;85.13;;;42.70;;
4122;SDS011;2075;51.062;6.920;2023-02-23T06:06:27;91.97;;;45.33;;
4122;SDS011;2075;51.062;6.920;2023-02-23T06:09:14;101.33;;;44.10;;
4122;SDS011;2075;51.062;6.920;2023-02-23T06:11:59;97.17;;;43.97;;
4122;SDS011;2075;51.062;6.920;2023-02-23T06:14:45;95.40;;;43.37;;
4122;SDS011;2075;51.062;6.920;2023-02-23T06:17:30;89.77;;;43.83;;
4122;SDS011;2075;51.062;6.920;2023-02-23T06:20:16;97.03;;;43.53;;
4122;SDS011;2075;51.062;6.920;2023-02-23T06:23:02;85.23;;;42.20;;
4122;SDS011;2075;51.062;6.920;2023-02-23T06:25:50;96.20;;;43.23;;
4122;SDS011;2075;51.062;6.920;2023-02-23T06:28:35;90.83;;;45.17;;
4122;SDS011;2075;51.062;6.920;2023-02-23T06:31:21;98.73;;;44.07;;
4122;SDS011;2075;51.062;6.920;2023-02-23T06:34:07;104.00;;;44.60;;
4122;SDS011;2075;51.062;6.920;2023-02-23T06:36:53;105.70;;;52.80;;
4122;SDS011;2075;51.062;6.920;2023-02-23T06:39:38;107.30;;;48.83;;
4122;SDS011;2075;51.062;6.920;2023-02-23T06:42:25;98.17;;;45.47;;
4122;SDS011;2075;51.062;6.920;2023-02-23T06:45:10;103.30;;;47.20;;
4122;SDS011;2075;51.062;6.920;2023-02-23T06:47:56;81.90;;;42.70;;
4122;SDS011;2075;51.062;6.920;2023-02-23T06:50:41;83.97;;;42.70;;
4122;SDS011;2075;51.062;6.920;2023-02-23T06:53:27;89.03;;;44.50;;
4122;SDS011;2075;51.062;6.920;2023-02-23T06:56:13;86.50;;;42.50;;
4122;SDS011;2075;51.062;6.920;2023-02-23T06:59:00;81.30;;;39.57;;
4122;SDS011;2075;51.062;6.920;2023-02-23T07:01:45;86.37;;;41.70;;
4122;SDS011;2075;51.062;6.920;2023-02-23T07:04:31;81.87;;;40.67;;
4122;SDS011;2075;51.062;6.920;2023-02-23T07:07:16;89.30;;;42.17;;
4122;SDS011;2075;51.062;6.920;2023-02-23T07:10:01;76.40;;;40.23;;
4122;SDS011;2075;51.062;6.920;2023-02-23T07:12:47;91.63;;;44.10;;
4122;SDS011;2075;51.062;6.920;2023-02-23T07:15:35;97.85;;;52.90;;
4122;SDS011;2075;51.062;6.920;2023-02-23T07:18:20;95.13;;;44.67;;
4122;SDS011;2075;51.062;6.920;2023-02-23T07:21:06;91.00;;;43.27;;
4122;SDS011;2075;51.062;6.920;2023-02-23T07:23:51;100.93;;;53.28;;
4122;SDS011;2075;51.062;6.920;2023-02-23T07:26:37;103.70;;;45.77;;
4122;SDS011;2075;51.062;6.920;2023-02-23T07:29:23;80.13;;;39.97;;
4122;SDS011;2075;51.062;6.920;2023-02-23T07:32:12;88.60;;;40.90;;
4122;SDS011;2075;51.062;6.920;2023-02-23T07:34:57;74.77;;;39.17;;
4122;SDS011;2075;51.062;6.920;2023-02-23T07:37:43;77.77;;;39.00;;
4122;SDS011;2075;51.062;6.920;2023-02-23T07:40:28;76.70;;;38.70;;
4122;SDS011;2075;51.062;6.920;2023-02-23T07:43:14;78.23;;;41.60;;
4122;SDS011;2075;51.062;6.920;2023-02-23T07:46:00;79.90;;;39.40;;
4122;SDS011;2075;51.062;6.920;2023-02-23T07:48:47;75.37;;;38.93;;
4122;SDS011;2075;51.062;6.920;2023-02-23T07:51:32;73.10;;;39.00;;
4122;SDS011;2075;51.062;6.920;2023-02-23T07:54:18;75.33;;;38.37;;
4122;SDS011;2075;51.062;6.920;2023-02-23T07:57:04;74.50;;;38.50;;
4122;SDS011;2075;51.062;6.920;2023-02-23T07:59:50;77.97;;;36.47;;
4122;SDS011;2075;51.062;6.920;2023-02-23T08:02:35;66.63;;;36.00;;
4122;SDS011;2075;51.062;6.920;2023-02-23T08:05:22;80.50;;;38.70;;
4122;SDS011;2075;51.062;6.920;2023-02-23T08:08:09;78.27;;;40.13;;
4122;SDS011;2075;51.062;6.920;2023-02-23T08:10:58;80.60;;;38.77;;
4122;SDS011;2075;51.062;6.920;2023-02-23T08:13:44;80.47;;;38.63;;
4122;SDS011;2075;51.062;6.920;2023-02-23T08:16:31;75.67;;;37.70;;
4122;SDS011;2075;51.062;6.920;2023-02-23T08:19:17;73.67;;;37.27;;
4122;SDS011;2075;51.062;6.920;2023-02-23T08:22:10;70.33;;;36.00;;
4122;SDS011;2075;51.062;6.920;2023-02-23T08:24:55;69.50;;;35.87;;
4122;SDS011;2075;51.062;6.920;2023-02-23T08:27:41;75.47;;;36.10;;
4122;SDS011;2075;51.062;6.920;2023-02-23T08:30:27;62.70;;;35.57;;
4122;SDS011;2075;51.062;6.920;2023-02-23T08:33:12;67.07;;;35.80;;
4122;SDS011;2075;51.062;6.920;2023-02-23T08:35:57;71.07;;;34.80;;
4122;SDS011;2075;51.062;6.920;2023-02-23T08:38:47;63.90;;;34.47;;
4122;SDS011;2075;51.062;6.920;2023-02-23T08:41:32;64.00;;;32.83;;
4122;SDS011;2075;51.062;6.920;2023-02-23T08:44:18;57.13;;;34.00;;
4122;SDS011;2075;51.062;6.920;2023-02-23T08:47:04;71.87;;;33.10;;
4122;SDS011;2075;51.062;6.920;2023-02-23T08:49:49;68.37;;;36.57;;
4122;SDS011;2075;51.062;6.920;2023-02-23T08:52:37;64.20;;;34.63;;
4122;SDS011;2075;51.062;6.920;2023-02-23T08:55:24;53.90;;;30.80;;
4122;SDS011;2075;51.062;6.920;2023-02-23T08:58:09;62.70;;;32.83;;
4122;SDS011;2075;51.062;6.920;2023-02-23T09:00:58;62.67;;;33.73;;
4122;SDS011;2075;51.062;6.920;2023-02-23T09:03:44;65.60;;;35.60;;
4122;SDS011;2075;51.062;6.920;2023-02-23T09:06:30;55.40;;;30.80;;
4122;SDS011;2075;51.062;6.920;2023-02-23T09:09:17;58.07;;;31.47;;
4122;SDS011;2075;51.062;6.920;2023-02-23T09:12:08;60.53;;;35.15;;
4122;SDS011;2075;51.062;6.920;2023-02-23T09:14:53;54.60;;;32.83;;
4122;SDS011;2075;51.062;6.920;2023-02-23T09:17:39;60.90;;;32.00;;
4122;SDS011;2075;51.062;6.920;2023-02-23T09:20:27;58.27;;;30.13;;
4122;SDS011;2075;51.062;6.920;2023-02-23T09:23:13;53.27;;;30.23;;
4122;SDS011;2075;51.062;6.920;2023-02-23T09:26:01;55.50;;;28.50;;
4122;SDS011;2075;51.062;6.920;2023-02-23T09:28:48;50.47;;;29.80;;
4122;SDS011;2075;51.062;6.920;2023-02-23T09:31:34;52.53;;;28.97;;
4122;SDS011;2075;51.062;6.920;2023-02-23T09:34:19;54.53;;;30.70;;
4122;SDS011;2075;51.062;6.920;2023-02-23T09:37:04;55.60;;;32.90;;
4122;SDS011;2075;51.062;6.920;2023-02-23T09:39:50;53.87;;;31.37;;
4122;SDS011;2075;51.062;6.920;2023-02-23T09:42:41;53.90;;;29.20;;
4122;SDS011;2075;51.062;6.920;2023-02-23T09:45:39;50.57;;;29.20;;
4122;SDS011;2075;51.062;6.920;2023-02-23T09:48:27;49.93;;;28.67;;
4122;SDS011;2075;51.062;6.920;2023-02-23T09:51:14;55.07;;;28.97;;
4122;SDS011;2075;51.062;6.920;2023-02-23T09:54:02;58.45;;;33.45;;
4122;SDS011;2075;51.062;6.920;2023-02-23T09:56:51;58.20;;;32.50;;
4122;SDS011;2075;51.062;6.920;2023-02-23T09:59:39;57.73;;;32.07;;
4122;SDS011;2075;51.062;6.920;2023-02-23T10:05:55;58.03;;;29.93;;
4122;SDS011;2075;51.062;6.920;2023-02-23T10:08:47;54.83;;;29.97;;
4122;SDS011;2075;51.062;6.920;2023-02-23T10:11:42;59.43;;;31.10;;
4122;SDS011;2075;51.062;6.920;2023-02-23T10:14:42;54.90;;;29.80;;
4122;SDS011;2075;51.062;6.920;2023-02-23T10:17:38;56.60;;;31.73;;
4122;SDS011;2075;51.062;6.920;2023-02-23T10:20:42;54.77;;;28.60;;
4122;SDS011;2075;51.062;6.920;2023-02-23T10:23:35;59.50;;;31.33;;
4122;SDS011;2075;51.062;6.920;2023-02-23T10:26:25;59.27;;;30.73;;
4122;SDS011;2075;51.062;6.920;2023-02-23T10:29:18;61.13;;;32.23;;
4122;SDS011;2075;51.062;6.920;2023-02-23T10:32:11;73.60;;;33.50;;
4122;SDS011;2075;51.062;6.920;2023-02-23T10:35:07;54.43;;;28.30;;
4122;SDS011;2075;51.062;6.920;2023-02-23T10:37:55;55.43;;;28.17;;
4122;SDS011;2075;51.062;6.920;2023-02-23T10:40:42;61.07;;;31.20;;
4122;SDS011;2075;51.062;6.920;2023-02-23T10:43:30;63.47;;;31.90;;
4122;SDS011;2075;51.062;6.920;2023-02-23T10:46:18;63.23;;;29.23;;
4122;SDS011;2075;51.062;6.920;2023-02-23T10:49:08;57.73;;;30.60;;
4122;SDS011;2075;51.062;6.920;2023-02-23T10:52:03;58.17;;;29.57;;
4122;SDS011;2075;51.062;6.920;2023-02-23T10:54:50;58.27;;;27.63;;
4122;SDS011;2075;51.062;6.920;2023-02-23T10:57:39;53.00;;;26.50;;
4122;SDS011;2075;51.062;6.920;2023-02-23T11:00:26;57.00;;;27.80;;
4122;SDS011;2075;51.062;6.920;2023-02-23T11:03:17;60.40;;;31.92;;
4122;SDS011;2075;51.062;6.920;2023-02-23T11:06:12;60.95;;;30.00;;
4122;SDS011;2075;51.062;6.920;2023-02-23T11:09:17;59.87;;;31.03;;
4122;SDS011;2075;51.062;6.920;2023-02-23T11:12:14;57.37;;;29.07;;
4122;SDS011;2075;51.062;6.920;2023-02-23T11:15:20;56.60;;;26.67;;
4122;SDS011;2075;51.062;6.920;2023-02-23T11:18:17;51.83;;;27.40;;
4122;SDS011;2075;51.062;6.920;2023-02-23T11:21:09;61.70;;;26.93;;
4122;SDS011;2075;51.062;6.920;2023-02-23T11:23:56;63.03;;;27.87;;
4122;SDS011;2075;51.062;6.920;2023-02-23T11:26:46;58.70;;;28.97;;
4122;SDS011;2075;51.062;6.920;2023-02-23T11:29:34;63.45;;;30.08;;
4122;SDS011;2075;51.062;6.920;2023-02-23T11:32:25;62.33;;;31.30;;
4122;SDS011;2075;51.062;6.920;2023-02-23T11:35:24;58.43;;;28.20;;
4122;SDS011;2075;51.062;6.920;2023-02-23T11:38:19;60.00;;;27.10;;
4122;SDS011;2075;51.062;6.920;2023-02-23T11:41:16;62.67;;;29.20;;
4122;SDS011;2075;51.062;6.920;2023-02-23T11:44:06;61.60;;;27.93;;
4122;SDS011;2075;51.062;6.920;2023-02-23T11:47:01;73.10;;;29.53;;
4122;SDS011;2075;51.062;6.920;2023-02-23T11:49:48;65.03;;;27.83;;
4122;SDS011;2075;51.062;6.920;2023-02-23T11:52:34;64.83;;;27.27;;
4122;SDS011;2075;51.062;6.920;2023-02-23T11:55:20;68.60;;;29.50;;
4122;SDS011;2075;51.062;6.920;2023-02-23T11:58:09;69.70;;;33.78;;
4122;SDS011;2075;51.062;6.920;2023-02-23T12:01:07;83.43;;;35.87;;
4122;SDS011;2075;51.062;6.920;2023-02-23T12:03:56;71.47;;;31.17;;
4122;SDS011;2075;51.062;6.920;2023-02-23T12:06:42;61.33;;;27.60;;
4122;SDS011;2075;51.062;6.920;2023-02-23T12:09:28;63.50;;;27.97;;
4122;SDS011;2075;51.062;6.920;2023-02-23T12:12:19;66.85;;;30.85;;
4122;SDS011;2075;51.062;6.920;2023-02-23T12:15:10;71.80;;;31.03;;
4122;SDS011;2075;51.062;6.920;2023-02-23T12:18:05;63.53;;;29.10;;
4122;SDS011;2075;51.062;6.920;2023-02-23T12:20:59;61.70;;;28.13;;
4122;SDS011;2075;51.062;6.920;2023-02-23T12:23:59;63.83;;;26.90;;
4122;SDS011;2075;51.062;6.920;2023-02-23T12:26:55;59.43;;;25.67;;
4122;SDS011;2075;51.062;6.920;2023-02-23T12:29:48;57.57;;;24.57;;
4122;SDS011;2075;51.062;6.920;2023-02-23T12:32:47;54.67;;;25.00;;
4122;SDS011;2075;51.062;6.920;2023-02-23T12:35:41;51.33;;;24.77;;
4122;SDS011;2075;51.062;6.920;2023-02-23T12:38:32;51.90;;;24.73;;
4122;SDS011;2075;51.062;6.920;2023-02-23T12:41:31;51.80;;;24.00;;
4122;SDS011;2075;51.062;6.920;2023-02-23T12:44:26;57.33;;;25.17;;
4122;SDS011;2075;51.062;6.920;2023-02-23T12:47:19;57.13;;;25.10;;
4122;SDS011;2075;51.062;6.920;2023-02-23T12:50:10;54.77;;;25.20;;
4122;SDS011;2075;51.062;6.920;2023-02-23T12:53:06;61.73;;;27.30;;
4122;SDS011;2075;51.062;6.920;2023-02-23T12:56:03;61.57;;;27.33;;
4122;SDS011;2075;51.062;6.920;2023-02-23T12:59:00;65.97;;;27.60;;
4122;SDS011;2075;51.062;6.920;2023-02-23T13:01:57;69.97;;;26.90;;
4122;SDS011;2075;51.062;6.920;2023-02-23T13:04:51;70.33;;;28.67;;
4122;SDS011;2075;51.062;6.920;2023-02-23T13:07:50;58.77;;;26.30;;
4122;SDS011;2075;51.062;6.920;2023-02-23T13:10:46;69.87;;;26.50;;
4122;SDS011;2075;51.062;6.920;2023-02-23T13:13:39;59.17;;;25.10;;
4122;SDS011;2075;51.062;6.920;2023-02-23T13:16:33;49.00;;;21.57;;
4122;SDS011;2075;51.062;6.920;2023-02-23T13:19:27;44.60;;;19.97;;
4122;SDS011;2075;51.062;6.920;2023-02-23T13:22:20;37.80;;;18.67;;
4122;SDS011;2075;51.062;6.920;2023-02-23T13:25:19;44.37;;;19.87;;
4122;SDS011;2075;51.062;6.920;2023-02-23T13:28:14;39.53;;;18.33;;
4122;SDS011;2075;51.062;6.920;2023-02-23T13:31:06;46.60;;;19.90;;
4122;SDS011;2075;51.062;6.920;2023-02-23T13:34:01;37.47;;;18.60;;
4122;SDS011;2075;51.062;6.920;2023-02-23T13:36:50;47.00;;;18.03;;
4122;SDS011;2075;51.062;6.920;2023-02-23T13:39:44;39.47;;;17.23;;
4122;SDS011;2075;51.062;6.920;2023-02-23T13:42:44;43.17;;;18.00;;
4122;SDS011;2075;51.062;6.920;2023-02-23T13:45:51;42.73;;;18.80;;
4122;SDS011;2075;51.062;6.920;2023-02-23T13:48:50;38.03;;;17.03;;
4122;SDS011;2075;51.062;6.920;2023-02-23T13:51:40;43.07;;;21.27;;
4122;SDS011;2075;51.062;6.920;2023-02-23T13:54:31;39.60;;;19.77;;
4122;SDS011;2075;51.062;6.920;2023-02-23T13:57:18;39.13;;;18.23;;
4122;SDS011;2075;51.062;6.920;2023-02-23T14:00:13;41.67;;;18.20;;
4122;SDS011;2075;51.062;6.920;2023-02-23T14:03:03;43.97;;;19.17;;
4122;SDS011;2075;51.062;6.920;2023-02-23T14:05:51;35.23;;;15.90;;
4122;SDS011;2075;51.062;6.920;2023-02-23T14:08:44;35.17;;;16.17;;
4122;SDS011;2075;51.062;6.920;2023-02-23T14:11:39;32.63;;;16.80;;
4122;SDS011;2075;51.062;6.920;2023-02-23T14:14:40;29.30;;;14.20;;
4122;SDS011;2075;51.062;6.920;2023-02-23T14:20:45;35.23;;;14.00;;
4122;SDS011;2075;51.062;6.920;2023-02-23T14:23:47;30.87;;;14.90;;
4122;SDS011;2075;51.062;6.920;2023-02-23T14:26:36;30.13;;;13.60;;
4122;SDS011;2075;51.062;6.920;2023-02-23T14:29:25;27.83;;;13.37;;
4122;SDS011;2075;51.062;6.920;2023-02-23T14:32:27;31.63;;;14.67;;
4122;SDS011;2075;51.062;6.920;2023-02-23T14:38:38;32.30;;;14.90;;
4122;SDS011;2075;51.062;6.920;2023-02-23T14:41:25;29.70;;;13.10;;
4122;SDS011;2075;51.062;6.920;2023-02-23T14:44:14;28.60;;;14.03;;
4122;SDS011;2075;51.062;6.920;2023-02-23T14:47:02;29.57;;;14.33;;
4122;SDS011;2075;51.062;6.920;2023-02-23T14:49:54;29.10;;;14.60;;
4122;SDS011;2075;51.062;6.920;2023-02-23T14:52:41;29.30;;;14.80;;
4122;SDS011;2075;51.062;6.920;2023-02-23T14:55:29;33.53;;;14.90;;
4122;SDS011;2075;51.062;6.920;2023-02-23T14:58:20;31.63;;;15.60;;
4122;SDS011;2075;51.062;6.920;2023-02-23T15:01:06;34.83;;;15.90;;
4122;SDS011;2075;51.062;6.920;2023-02-23T15:04:03;43.00;;;16.10;;
4122;SDS011;2075;51.062;6.920;2023-02-23T15:06:51;37.40;;;16.87;;
4122;SDS011;2075;51.062;6.920;2023-02-23T15:09:39;35.63;;;17.30;;
4122;SDS011;2075;51.062;6.920;2023-02-23T15:12:28;34.97;;;16.60;;
4122;SDS011;2075;51.062;6.920;2023-02-23T15:15:20;35.58;;;16.92;;
4122;SDS011;2075;51.062;6.920;2023-02-23T15:18:09;34.73;;;17.63;;
4122;SDS011;2075;51.062;6.920;2023-02-23T15:21:05;39.63;;;18.10;;
4122;SDS011;2075;51.062;6.920;2023-02-23T15:23:57;41.40;;;17.33;;
4122;SDS011;2075;51.062;6.920;2023-02-23T15:26:47;36.50;;;17.47;;
4122;SDS011;2075;51.062;6.920;2023-02-23T15:29:34;39.10;;;17.00;;
4122;SDS011;2075;51.062;6.920;2023-02-23T15:32:20;45.70;;;23.02;;
4122;SDS011;2075;51.062;6.920;2023-02-23T15:35:07;41.43;;;20.37;;
4122;SDS011;2075;51.062;6.920;2023-02-23T15:37:55;42.57;;;19.70;;
4122;SDS011;2075;51.062;6.920;2023-02-23T15:40:44;40.77;;;18.10;;
4122;SDS011;2075;51.062;6.920;2023-02-23T15:43:31;43.90;;;19.10;;
4122;SDS011;2075;51.062;6.920;2023-02-23T15:46:20;44.83;;;21.27;;
4122;SDS011;2075;51.062;6.920;2023-02-23T15:49:09;49.30;;;22.03;;
4122;SDS011;2075;51.062;6.920;2023-02-23T15:51:58;48.37;;;22.27;;
4122;SDS011;2075;51.062;6.920;2023-02-23T15:54:46;51.53;;;22.07;;
4122;SDS011;2075;51.062;6.920;2023-02-23T15:57:42;52.17;;;22.70;;
4122;SDS011;2075;51.062;6.920;2023-02-23T16:00:31;46.33;;;20.03;;
4122;SDS011;2075;51.062;6.920;2023-02-23T16:03:23;44.03;;;19.97;;
4122;SDS011;2075;51.062;6.920;2023-02-23T16:06:20;53.90;;;21.40;;
4122;SDS011;2075;51.062;6.920;2023-02-23T16:09:13;48.40;;;19.30;;
4122;SDS011;2075;51.062;6.920;2023-02-23T16:12:09;50.60;;;19.70;;
4122;SDS011;2075;51.062;6.920;2023-02-23T16:14:58;53.43;;;20.83;;
4122;SDS011;2075;51.062;6.920;2023-02-23T16:17:46;57.50;;;21.40;;
4122;SDS011;2075;51.062;6.920;2023-02-23T16:20:42;48.77;;;20.40;;
4122;SDS011;2075;51.062;6.920;2023-02-23T16:23:39;47.13;;;19.70;;
4122;SDS011;2075;51.062;6.920;2023-02-23T16:26:33;45.27;;;19.00;;
4122;SDS011;2075;51.062;6.920;2023-02-23T16:29:26;50.65;;;22.30;;
4122;SDS011;2075;51.062;6.920;2023-02-23T16:32:18;47.77;;;21.90;;
4122;SDS011;2075;51.062;6.920;2023-02-23T16:35:08;44.28;;;18.35;;
4122;SDS011;2075;51.062;6.920;2023-02-23T16:38:02;45.53;;;21.00;;
4122;SDS011;2075;51.062;6.920;2023-02-23T16:40:53;52.03;;;24.85;;
4122;SDS011;2075;51.062;6.920;2023-02-23T16:43:38;51.45;;;23.80;;
4122;SDS011;2075;51.062;6.920;2023-02-23T16:46:26;49.38;;;23.52;;
4122;SDS011;2075;51.062;6.920;2023-02-23T16:49:14;45.58;;;22.17;;
4122;SDS011;2075;51.062;6.920;2023-02-23T16:52:02;40.77;;;18.87;;
4122;SDS011;2075;51.062;6.920;2023-02-23T16:54:58;50.50;;;21.05;;
4122;SDS011;2075;51.062;6.920;2023-02-23T16:57:44;37.67;;;18.10;;
4122;SDS011;2075;51.062;6.920;2023-02-23T17:00:33;47.83;;;19.27;;
4122;SDS011;2075;51.062;6.920;2023-02-23T17:03:20;51.30;;;22.30;;
4122;SDS011;2075;51.062;6.920;2023-02-23T17:06:08;48.10;;;21.33;;
4122;SDS011;2075;51.062;6.920;2023-02-23T17:08:55;56.33;;;21.27;;
4122;SDS011;2075;51.062;6.920;2023-02-23T17:11:41;54.90;;;19.90;;
4122;SDS011;2075;51.062;6.920;2023-02-23T17:14:29;63.03;;;22.47;;
4122;SDS011;2075;51.062;6.920;2023-02-23T17:17:16;43.27;;;19.50;;
4122;SDS011;2075;51.062;6.920;2023-02-23T17:20:04;48.13;;;18.40;;
4122;SDS011;2075;51.062;6.920;2023-02-23T17:23:00;37.50;;;18.23;;
4122;SDS011;2075;51.062;6.920;2023-02-23T17:25:47;50.65;;;24.48;;
4122;SDS011;2075;51.062;6.920;2023-02-23T17:28:34;46.03;;;19.43;;
4122;SDS011;2075;51.062;6.920;2023-02-23T17:31:20;42.67;;;18.70;;